createdAt,value
2017-12-10T00:05:13.435Z,95185
2017-12-10T00:10:41.582Z,95172
2017-12-10T00:16:09.708Z,95168
2017-12-10T00:21:37.856Z,95174
2017-12-10T00:27:06.011Z,95171
2017-12-10T00:32:34.161Z,95182
2017-12-10T00:38:02.294Z,95163
2017-12-10T00:43:30.434Z,95151
2017-12-10T00:49:10.454Z,95140
2017-12-10T00:54:38.586Z,95136
2017-12-10T01:00:06.731Z,95126
2017-12-10T01:05:35.961Z,95116
2017-12-10T01:11:04.889Z,95106
2017-12-10T01:16:35.028Z,95103
2017-12-10T01:22:03.486Z,95101
2017-12-10T01:27:31.854Z,95100
2017-12-10T01:33:00.312Z,95096
2017-12-10T01:38:38.467Z,95087
2017-12-10T01:44:06.956Z,95084
2017-12-10T01:49:35.194Z,95074
2017-12-10T01:55:03.358Z,95066
2017-12-10T02:00:31.563Z,95070
2017-12-10T02:06:00.692Z,95045
2017-12-10T02:11:28.856Z,95030
2017-12-10T02:16:58.923Z,95006
2017-12-10T02:22:28.315Z,94987
2017-12-10T02:27:56.472Z,94983
2017-12-10T02:33:24.652Z,94968
2017-12-10T02:39:14.590Z,94950
2017-12-10T02:44:42.796Z,94950
2017-12-10T02:50:10.951Z,94947
2017-12-10T02:55:39.126Z,94931
2017-12-10T03:01:07.306Z,94927
2017-12-10T03:06:35.442Z,94913
2017-12-10T03:12:03.578Z,94898
2017-12-10T03:17:32.538Z,94892
2017-12-10T03:23:01.025Z,94870
2017-12-10T03:28:29.610Z,94860
2017-12-10T03:33:58.000Z,94858
2017-12-10T03:39:27.164Z,94851
2017-12-10T03:44:55.333Z,94833
2017-12-10T03:50:23.776Z,94820
2017-12-10T03:55:51.921Z,94814
2017-12-10T04:01:20.073Z,94794
2017-12-10T04:06:48.223Z,94783
2017-12-10T04:12:23.193Z,94778
2017-12-10T04:17:51.348Z,94776
2017-12-10T04:23:38.756Z,94767
2017-12-10T04:29:06.915Z,94783
2017-12-10T04:34:35.072Z,94764
2017-12-10T04:40:03.207Z,94760
2017-12-10T04:45:31.338Z,94742
2017-12-10T04:50:59.606Z,94739
2017-12-10T04:56:27.759Z,94727
2017-12-10T05:01:56.249Z,94710
2017-12-10T05:07:26.531Z,94709
2017-12-10T05:12:55.442Z,94684
2017-12-10T05:18:23.563Z,94671
2017-12-10T05:23:51.711Z,94662
2017-12-10T05:29:27.242Z,94639
2017-12-10T05:34:55.406Z,94625
2017-12-10T05:40:23.539Z,94626
2017-12-10T05:45:52.456Z,94612
2017-12-10T05:51:20.611Z,94595
2017-12-10T05:56:49.544Z,94602
2017-12-10T06:02:17.702Z,94578
2017-12-10T06:07:45.821Z,94571
2017-12-10T06:13:14.726Z,94561
2017-12-10T06:18:42.898Z,94549
2017-12-10T06:24:11.035Z,94527
2017-12-10T06:29:39.166Z,94516
2017-12-10T06:35:07.347Z,94502
2017-12-10T06:40:46.218Z,94488
2017-12-10T06:46:20.007Z,94471
2017-12-10T06:52:00.848Z,94473
2017-12-10T06:57:29.775Z,94442
2017-12-10T07:02:58.684Z,94435
2017-12-10T07:08:28.805Z,94403
2017-12-10T07:13:56.951Z,94400
2017-12-10T07:19:25.100Z,94376
2017-12-10T07:24:53.250Z,94368
2017-12-10T07:30:22.154Z,94344
2017-12-10T07:35:50.333Z,94323
2017-12-10T07:41:18.583Z,94294
2017-12-10T07:46:46.734Z,94283
2017-12-10T07:52:14.927Z,94248
2017-12-10T07:57:43.084Z,94215
2017-12-10T08:03:11.997Z,94193
2017-12-10T08:08:40.140Z,94170
2017-12-10T08:14:08.290Z,94161
2017-12-10T08:19:36.960Z,94143
2017-12-10T08:25:05.095Z,94154
2017-12-10T08:30:34.090Z,94128
2017-12-10T08:36:02.209Z,94110
2017-12-10T08:41:30.658Z,94102
2017-12-10T08:47:00.826Z,94072
2017-12-10T08:52:29.914Z,94050
2017-12-10T08:57:58.819Z,94038
2017-12-10T09:03:28.198Z,94012
2017-12-10T09:08:58.618Z,93973
2017-12-10T09:14:26.771Z,93954
2017-12-10T09:19:54.916Z,93938
2017-12-10T09:25:23.828Z,93915
2017-12-10T09:30:52.749Z,93885
2017-12-10T09:36:20.895Z,93867
2017-12-10T09:41:49.059Z,93851
2017-12-10T09:47:17.195Z,93839
2017-12-10T09:52:45.422Z,93804
2017-12-10T09:58:13.595Z,93753
2017-12-10T10:03:42.504Z,93755
2017-12-10T10:09:14.349Z,93739
2017-12-10T10:14:43.270Z,93721
2017-12-10T10:20:12.216Z,93697
2017-12-10T10:25:41.124Z,93652
2017-12-10T10:31:09.307Z,93637
2017-12-10T10:36:37.446Z,93623
2017-12-10T10:42:05.638Z,93594
2017-12-10T10:47:33.770Z,93582
2017-12-10T10:53:02.915Z,93561
2017-12-10T10:58:32.275Z,93535
2017-12-10T11:04:00.476Z,93494
2017-12-10T11:09:29.003Z,93467
2017-12-10T11:14:59.451Z,93450
2017-12-10T11:20:28.522Z,93426
2017-12-10T11:25:56.790Z,93398
2017-12-10T11:31:25.756Z,93374
2017-12-10T11:36:54.203Z,93362
2017-12-10T11:42:22.342Z,93367
2017-12-10T11:47:53.518Z,93328
2017-12-10T11:53:21.672Z,93303
2017-12-10T11:58:49.809Z,93294
2017-12-10T12:04:29.797Z,93272
2017-12-10T12:09:57.963Z,93245
2017-12-10T12:15:26.173Z,93227
2017-12-10T12:38:08.197Z,93103
2017-12-10T12:43:39.331Z,93067
2017-12-10T12:49:08.233Z,93052
2017-12-10T12:54:37.140Z,93031
2017-12-10T13:00:05.301Z,93003
2017-12-10T13:05:33.512Z,92987
2017-12-10T13:11:08.062Z,92983
2017-12-10T13:16:42.250Z,92967
2017-12-10T13:22:44.325Z,92963
2017-12-10T13:28:19.018Z,92957
2017-12-10T13:33:50.796Z,92953
2017-12-10T13:39:19.825Z,92941
2017-12-10T13:44:58.083Z,92941
2017-12-10T13:50:27.025Z,92940
2017-12-10T13:55:56.860Z,92931
2017-12-10T14:01:26.987Z,92922
2017-12-10T14:06:55.117Z,92915
2017-12-10T14:12:23.448Z,92887
2017-12-10T14:17:51.593Z,92883
2017-12-10T14:23:19.861Z,92906
2017-12-10T14:28:48.031Z,92913
2017-12-10T14:34:16.203Z,92951
2017-12-10T14:39:44.356Z,92944
2017-12-10T14:45:16.531Z,92954
2017-12-10T14:50:45.437Z,92952
2017-12-10T14:56:13.684Z,92972
2017-12-10T15:01:44.455Z,92983
2017-12-10T15:07:12.607Z,92992
2017-12-10T15:12:41.446Z,93002
2017-12-10T15:27:25.536Z,93046
2017-12-10T15:32:54.548Z,93038
2017-12-10T15:38:45.637Z,93064
2017-12-10T15:44:14.677Z,93062
2017-12-10T15:49:44.126Z,93051
2017-12-10T15:55:16.738Z,93053
2017-12-10T16:00:44.954Z,93065
2017-12-10T16:06:13.109Z,93055
2017-12-10T16:11:41.349Z,93068
2017-12-10T16:17:09.508Z,93084
2017-12-10T16:22:37.661Z,93087
2017-12-10T16:28:08.881Z,93088
2017-12-10T16:33:37.120Z,93085
2017-12-10T16:39:09.810Z,93079
2017-12-10T16:44:38.710Z,93069
2017-12-10T16:50:06.871Z,93085
2017-12-10T16:55:36.697Z,93112
2017-12-10T17:01:05.613Z,93132
2017-12-10T17:06:34.724Z,93136
2017-12-10T17:12:02.898Z,93175
2017-12-10T17:17:31.964Z,93188
2017-12-10T17:23:00.892Z,93167
2017-12-10T17:28:30.656Z,93115
2017-12-10T17:33:58.842Z,93105
2017-12-10T17:39:27.028Z,93116
2017-12-10T17:44:55.527Z,93133
2017-12-10T17:50:23.670Z,93154
2017-12-10T17:55:51.868Z,93159
2017-12-10T18:01:20.780Z,93151
2017-12-10T18:06:48.905Z,93146
2017-12-10T18:12:17.043Z,93157
2017-12-10T18:17:46.232Z,93158
2017-12-10T18:23:14.340Z,93163
2017-12-10T18:28:42.486Z,93165
2017-12-10T18:34:16.156Z,93162
2017-12-10T18:39:46.995Z,93172
2017-12-10T18:45:15.140Z,93193
2017-12-10T18:50:44.305Z,93175
2017-12-10T18:56:12.458Z,93199
2017-12-10T19:01:42.315Z,93208
2017-12-10T19:07:11.239Z,93213
2017-12-10T19:12:39.371Z,93228
2017-12-10T19:18:09.358Z,93229
2017-12-10T19:23:39.504Z,93231
2017-12-10T19:29:09.414Z,93224
2017-12-10T19:34:37.556Z,93218
2017-12-10T19:40:06.654Z,93223
2017-12-10T19:45:34.832Z,93223
2017-12-10T19:51:02.970Z,93241
2017-12-10T19:56:31.876Z,93239
2017-12-10T20:02:00.949Z,93242
2017-12-10T20:07:30.524Z,93228
2017-12-10T20:13:00.418Z,93218
2017-12-10T20:18:28.847Z,93233
2017-12-10T20:23:57.000Z,93218
2017-12-10T20:29:25.186Z,93223
2017-12-10T20:34:53.507Z,93216
2017-12-10T20:40:21.660Z,93216
2017-12-10T20:45:49.802Z,93215
2017-12-10T20:51:19.956Z,93213
2017-12-10T20:56:48.089Z,93218
2017-12-10T21:02:17.021Z,93215
2017-12-10T21:07:45.917Z,93207
2017-12-10T21:13:19.773Z,93206
2017-12-10T21:18:48.189Z,93181
2017-12-10T21:24:17.386Z,93175
2017-12-10T21:29:45.540Z,93163
2017-12-10T21:35:13.870Z,93147
2017-12-10T21:40:41.990Z,93132
2017-12-10T21:46:10.131Z,93122
2017-12-10T21:51:38.248Z,93122
2017-12-10T21:57:06.586Z,93107
2017-12-10T22:02:34.730Z,93098
2017-12-10T22:08:02.884Z,93079
2017-12-10T22:13:31.815Z,93058
2017-12-10T22:19:04.630Z,93061
2017-12-10T22:24:32.800Z,93069
2017-12-10T22:30:01.085Z,93052
2017-12-10T22:35:30.054Z,93048
2017-12-10T22:40:58.248Z,93025
2017-12-10T22:46:27.243Z,93030
2017-12-10T22:51:55.404Z,93033
2017-12-10T22:57:24.312Z,93026
2017-12-10T23:02:57.072Z,93037
2017-12-10T23:08:26.005Z,93021
2017-12-10T23:14:05.808Z,93024
2017-12-10T23:19:34.725Z,93035
2017-12-10T23:25:02.873Z,93023
2017-12-10T23:30:31.772Z,93007
2017-12-10T23:35:59.907Z,93021
2017-12-10T23:41:28.133Z,93027
2017-12-10T23:46:56.334Z,93011
2017-12-10T23:52:25.454Z,93017
2017-12-10T23:57:53.821Z,93002
